Observations for BELFAST ALDERGROVE, United Kingdom (EGAA)

EGAA 242020Z 26010KT 9999 5000E -RA SCT009 SCT013 BKN019 08/07 Q1006
EGAA 241950Z 23007KT 9999 -RA SCT011 BKN016 08/07 Q1006 
EGAA 241920Z 23004KT 9999 -RA SCT008 BKN013 08/07 Q1006 
EGAA 241850Z 26007KT 9999 -RA SCT010 BKN014 08/07 Q1005 
EGAA 241820Z 25013KT 9999 -RA SCT014 BKN019 OVC033 09/07 Q1005  
EGAA 241750Z 22009KT 9999 VCSH SCT026 10/08 Q1005   
EGAA 241720Z 23009KT 9999 SCT026 11/08 Q1005
EGAA 241650Z 22010KT 9999 SCT022 11/08 Q1005
EGAA 241620Z 22010KT 9999 SCT024 10/08 Q1005
EGAA 241550Z 22012KT 9999 SCT013 10/08 Q1006
EGAA 241520Z 21012KT 9999 SCT025 10/08 Q1006
EGAA 241450Z 21011KT 9999 SCT012 BKN034 09/08 Q1006 
EGAA 241420Z 23011KT 8000 -RA FEW011 SCT015 BKN025 09/08 Q1007 RERA 
EGAA 241350Z 21009KT 9999 FEW015 SCT035 11/08 Q1007 
EGAA 241320Z 21008KT 9999 SCT020 10/06 Q1007
EGAA 241250Z 22008KT 9999 FEW016 SCT046 11/07 Q1007 
EGAA 241220Z 22010KT 9999 SCT037 BKN046 11/07 Q1008 
EGAA 241150Z 22010KT 9999 FEW015 SCT020 11/07 Q1008 
EGAA 241120Z 22009KT 9999 FEW017 11/07 Q1008
EGAA 241050Z 22008KT 9999 FEW023 10/07 Q1009
EGAA 241020Z 22009KT 9999 FEW022 10/07 Q1009
EGAA 240950Z 22010KT 9999 FEW023 10/07 Q1009
EGAA 240920Z 22008KT 190V250 9999 FEW012 SCT017 10/07 Q1009 
EGAA 240850Z 22009KT 9999 FEW011 SCT017 09/07 Q1009 
EGAA 240820Z 22011KT 9999 FEW010 09/07 Q1009
EGAA 240750Z 22010KT 9999 FEW009 09/07 Q1009
EGAA 240720Z 22010KT 9999 FEW010 09/07 Q1009
EGAA 240650Z 21010KT 9999 FEW012 SCT030 08/07 Q1009 
EGAA 240620Z 22008KT 9999 FEW012 08/06 Q1009
EGAA 240550Z 22009KT 9999 FEW022 BKN027 07/06 Q1010 
EGAA 240520Z 21009KT 9999 FEW021 SCT033 BKN039 08/06 Q1010  
EGAA 240450Z 22009KT 9999 SCT022 BKN028 BKN034 08/06 Q1009  
EGAA 240420Z 22009KT 9999 FEW021 BKN039 08/06 Q1009 
EGAA 240350Z 22009KT 9999 SCT021 BKN046 08/06 Q1010 
EGAA 240320Z AUTO 22011KT 9999 FEW022/// SCT028/// 08/06 Q1010  
EGAA 240250Z AUTO 22010KT 9999 SCT020/// BKN026/// BKN042/// 08/07 Q1010
EGAA 240220Z AUTO 22008KT 9999 -RA SCT020/// BKN027/// BKN039/// 08/06 Q1010
EGAA 240150Z 23008KT 9999 FEW022 08/06 Q1010
EGAA 240120Z 24010KT 9999 SCT020 SCT025 09/06 Q1009 
EGAA 240050Z 25014KT 9999 BKN024 09/06 Q1009
EGAA 240020Z 23011KT 9999 BKN023 09/06 Q1009
EGAA 232350Z 24010KT 9999 SCT022 BKN027 09/06 Q1009 
EGAA 232320Z 23011KT 9999 SCT022 SCT028 BKN033 09/06 Q1009  
EGAA 232250Z 23011KT 9999 FEW023 SCT029 BKN040 09/06 Q1009  
EGAA 232220Z 22011KT 9999 FEW025 SCT030 BKN036 09/06 Q1009  
EGAA 232150Z 22007KT 9999 BKN025 OVC045 09/06 Q1009 
EGAA 232120Z 24011KT 9999 SCT028 BKN033 09/06 Q1009 
EGAA 232050Z 26015KT 9999 SCT026 BKN032 09/06 Q1009 
EGAA 232020Z 25014KT 9999 SCT022 BKN027 09/06 Q1009 
EGAA 231950Z 25014KT 9999 SCT023 BKN029 10/06 Q1008